createdAt,value
2018-09-08T00:00:36.008Z,10.90
2018-09-08T00:02:40.000Z,10.90
2018-09-08T00:04:43.954Z,10.80
2018-09-08T00:06:52.255Z,10.80
2018-09-08T00:08:56.252Z,10.70
2018-09-08T00:11:00.476Z,10.70
2018-09-08T00:13:04.461Z,10.60
2018-09-08T00:15:13.643Z,10.60
2018-09-08T00:17:22.935Z,10.60
2018-09-08T00:19:31.965Z,11.30
2018-09-08T00:21:41.319Z,12.20
2018-09-08T00:23:50.563Z,12.80
2018-09-08T00:25:59.752Z,13.00
2018-09-08T00:28:11.397Z,13.00
2018-09-08T00:30:16.201Z,12.40
2018-09-08T00:32:21.589Z,12.10
2018-09-08T00:34:25.875Z,11.70
2018-09-08T00:36:29.887Z,11.50
2018-09-08T00:38:33.835Z,11.30
2018-09-08T00:40:37.904Z,11.10
2018-09-08T00:42:41.915Z,11.00
2018-09-08T00:44:46.071Z,10.80
2018-09-08T00:46:50.342Z,10.80
2018-09-08T00:48:54.312Z,10.70
2018-09-08T00:50:58.323Z,10.60
2018-09-08T00:53:02.417Z,10.60
2018-09-08T00:55:06.624Z,10.50
2018-09-08T00:57:10.608Z,10.50
2018-09-08T00:59:14.676Z,10.50
2018-09-08T01:01:18.711Z,10.50
2018-09-08T01:03:23.044Z,10.40
2018-09-08T01:05:26.955Z,10.40
2018-09-08T01:07:31.802Z,10.40
2018-09-08T01:09:35.869Z,10.40
2018-09-08T01:11:39.803Z,10.50
2018-09-08T01:13:43.918Z,11.30
2018-09-08T01:15:47.989Z,12.10
2018-09-08T01:17:52.372Z,12.70
2018-09-08T01:19:56.216Z,13.10
2018-09-08T01:22:00.192Z,13.00
2018-09-08T01:24:04.261Z,12.50
2018-09-08T01:26:08.504Z,12.00
2018-09-08T01:28:12.376Z,11.70
2018-09-08T01:30:16.358Z,11.40
2018-09-08T01:32:20.734Z,11.20
2018-09-08T01:34:25.071Z,11.00
2018-09-08T01:36:29.210Z,10.90
2018-09-08T01:38:33.263Z,10.80
2018-09-08T01:40:37.292Z,10.80
2018-09-08T01:42:41.571Z,10.70
2018-09-08T01:44:45.636Z,10.60
2018-09-08T01:46:49.727Z,10.60
2018-09-08T01:48:53.847Z,10.50
2018-09-08T01:50:57.952Z,10.50
2018-09-08T01:53:01.915Z,10.50
2018-09-08T01:55:06.306Z,10.50
2018-09-08T01:57:10.389Z,10.50
2018-09-08T01:59:14.411Z,10.50
2018-09-08T02:01:18.337Z,10.40
2018-09-08T02:03:22.256Z,10.40
2018-09-08T02:05:26.443Z,10.40
2018-09-08T02:07:30.446Z,10.80
2018-09-08T02:09:34.402Z,11.60
2018-09-08T02:11:38.443Z,12.40
2018-09-08T02:13:42.453Z,12.80
2018-09-08T02:15:46.418Z,13.10
2018-09-08T02:17:50.475Z,12.90
2018-09-08T02:19:54.608Z,12.50
2018-09-08T02:21:58.555Z,12.10
2018-09-08T02:24:02.612Z,11.80
2018-09-08T02:26:06.682Z,11.50
2018-09-08T02:28:10.715Z,11.30
2018-09-08T02:30:14.784Z,11.10
2018-09-08T02:32:19.024Z,10.90
2018-09-08T02:34:23.274Z,10.80
2018-09-08T02:36:27.222Z,10.70
2018-09-08T02:38:31.416Z,10.60
2018-09-08T02:40:35.816Z,10.60
2018-09-08T02:42:39.881Z,10.60
2018-09-08T02:44:44.032Z,10.60
2018-09-08T02:46:48.080Z,10.50
2018-09-08T02:48:52.138Z,10.40
2018-09-08T02:50:54.668Z,10.50
2018-09-08T02:52:57.359Z,10.50
2018-09-08T02:54:59.955Z,10.50
2018-09-08T02:57:02.468Z,10.40
2018-09-08T02:59:05.203Z,10.30
2018-09-08T03:01:07.731Z,10.30
2018-09-08T03:03:10.293Z,10.70
2018-09-08T03:05:12.887Z,11.50
2018-09-08T03:07:15.860Z,12.20
2018-09-08T03:09:18.463Z,12.70
2018-09-08T03:11:21.178Z,12.90
2018-09-08T03:13:23.718Z,12.70
2018-09-08T03:15:26.291Z,12.30
2018-09-08T03:17:28.911Z,11.90
2018-09-08T03:19:31.547Z,11.60
2018-09-08T03:21:34.107Z,11.40
2018-09-08T03:23:36.659Z,11.30
2018-09-08T03:25:39.307Z,11.20
2018-09-08T03:27:41.927Z,11.00
2018-09-08T03:29:44.757Z,10.80
2018-09-08T03:31:47.241Z,10.70
2018-09-08T03:33:50.039Z,10.60
2018-09-08T03:35:52.693Z,10.60
2018-09-08T03:37:55.192Z,10.60
2018-09-08T03:39:57.764Z,10.50
2018-09-08T03:42:00.400Z,10.50
2018-09-08T03:44:02.913Z,10.40
2018-09-08T03:46:05.648Z,10.40
2018-09-08T03:48:08.165Z,10.30
2018-09-08T03:50:10.867Z,10.30
2018-09-08T03:52:13.588Z,10.30
2018-09-08T03:54:16.227Z,10.30
2018-09-08T03:56:18.974Z,10.20
2018-09-08T03:58:21.604Z,10.20
2018-09-08T04:00:24.117Z,10.90
2018-09-08T04:02:26.745Z,11.70
2018-09-08T04:04:30.735Z,12.30
2018-09-08T04:06:34.972Z,12.60
2018-09-08T04:08:39.257Z,12.70
2018-09-08T04:10:43.268Z,12.40
2018-09-08T04:12:47.263Z,11.90
2018-09-08T04:14:51.327Z,11.60
2018-09-08T04:16:55.473Z,11.30
2018-09-08T04:18:59.347Z,11.10
2018-09-08T04:21:03.561Z,10.90
2018-09-08T04:23:07.601Z,10.80
2018-09-08T04:25:11.501Z,10.70
2018-09-08T04:27:15.669Z,10.60
2018-09-08T04:29:20.106Z,10.50
2018-09-08T04:31:24.390Z,10.50
2018-09-08T04:33:28.680Z,10.40
2018-09-08T04:35:32.647Z,10.40
2018-09-08T04:37:36.807Z,10.40
2018-09-08T04:39:40.977Z,10.30
2018-09-08T04:41:45.206Z,10.30
2018-09-08T04:43:49.487Z,10.30
2018-09-08T04:45:55.064Z,10.20
2018-09-08T04:47:59.163Z,10.20
2018-09-08T04:50:03.359Z,10.10
2018-09-08T04:52:07.395Z,10.10
2018-09-08T04:54:11.315Z,10.10
2018-09-08T04:56:15.824Z,10.40
2018-09-08T04:58:19.808Z,11.20
2018-09-08T05:00:24.043Z,11.90
2018-09-08T05:02:28.362Z,12.40
2018-09-08T05:04:32.469Z,12.70
2018-09-08T05:06:36.663Z,12.60
2018-09-08T05:08:40.653Z,12.10
2018-09-08T05:10:44.880Z,11.70
2018-09-08T05:12:49.195Z,11.40
2018-09-08T05:14:53.105Z,11.20
2018-09-08T05:16:57.243Z,11.00
2018-09-08T05:19:01.471Z,10.80
2018-09-08T05:21:05.715Z,10.70
2018-09-08T05:23:09.771Z,10.60
2018-09-08T05:25:13.823Z,10.60
2018-09-08T05:27:18.057Z,10.50
2018-09-08T05:29:22.415Z,10.50
2018-09-08T05:31:26.399Z,10.50
2018-09-08T05:33:30.396Z,10.50
2018-09-08T05:35:34.536Z,10.50
2018-09-08T05:37:39.658Z,10.60
2018-09-08T05:39:43.771Z,10.60
2018-09-08T05:41:47.695Z,10.60
2018-09-08T05:43:51.890Z,10.60
2018-09-08T05:45:55.939Z,10.70
2018-09-08T05:48:00.228Z,10.80
2018-09-08T05:50:04.538Z,10.90
2018-09-08T05:52:08.693Z,11.00
2018-09-08T05:54:13.271Z,11.50
2018-09-08T05:56:17.046Z,12.40
2018-09-08T05:58:20.834Z,13.20
2018-09-08T06:00:25.443Z,13.80
2018-09-08T06:02:38.486Z,14.10
2018-09-08T06:04:57.216Z,13.50
2018-09-08T06:07:17.406Z,13.40
2018-09-08T06:09:21.263Z,13.40
2018-09-08T06:11:25.252Z,13.30
2018-09-08T06:13:29.311Z,13.40
2018-09-08T06:15:33.295Z,13.40
2018-09-08T06:17:37.325Z,13.90
2018-09-08T06:19:41.079Z,14.30
2018-09-08T06:21:45.147Z,14.90
2018-09-08T06:23:49.152Z,15.50
2018-09-08T06:25:53.212Z,17.00
2018-09-08T06:27:57.654Z,18.20
2018-09-08T06:30:01.764Z,19.60
2018-09-08T06:32:05.641Z,20.60
2018-09-08T06:34:47.893Z,20.60
2018-09-08T06:36:52.315Z,21.00
2018-09-08T06:38:56.187Z,22.30
2018-09-08T06:41:00.484Z,23.10
2018-09-08T06:43:04.251Z,24.40
2018-09-08T06:45:11.556Z,24.80
2018-09-08T06:47:15.411Z,24.60
2018-09-08T06:49:19.147Z,25.00
2018-09-08T06:51:23.062Z,25.20
2018-09-08T06:53:27.052Z,25.60
2018-09-08T06:55:31.396Z,26.60
2018-09-08T06:57:35.125Z,27.10
2018-09-08T06:59:38.919Z,27.00
2018-09-08T07:01:42.805Z,27.60
2018-09-08T07:03:46.813Z,27.20
2018-09-08T07:05:50.649Z,28.50
2018-09-08T07:07:54.443Z,27.00
2018-09-08T07:09:58.283Z,27.70
2018-09-08T07:12:02.244Z,26.70
2018-09-08T07:14:06.133Z,26.70
2018-09-08T07:16:10.053Z,25.50
2018-09-08T07:18:14.301Z,25.00
2018-09-08T07:20:18.145Z,25.70
2018-09-08T07:22:22.026Z,25.10
2018-09-08T07:24:33.879Z,23.00
2018-09-08T07:26:37.679Z,24.20
2018-09-08T07:28:41.517Z,24.80
2018-09-08T07:30:45.308Z,24.80
2018-09-08T07:32:49.072Z,24.10
2018-09-08T07:34:52.840Z,24.50
2018-09-08T07:36:56.799Z,23.40
2018-09-08T07:39:00.732Z,22.60
2018-09-08T07:41:04.570Z,20.70
2018-09-08T07:43:08.334Z,20.50
2018-09-08T07:45:12.105Z,20.60
2018-09-08T07:47:15.917Z,20.60
2018-09-08T07:49:19.696Z,20.60
2018-09-08T07:51:23.480Z,20.90
2018-09-08T07:53:27.411Z,20.80
2018-09-08T07:55:31.084Z,20.30
2018-09-08T07:57:34.875Z,20.10
2018-09-08T07:59:38.865Z,20.50
2018-09-08T08:01:42.625Z,20.80
2018-09-08T08:03:46.593Z,21.20
2018-09-08T08:05:50.370Z,21.30
2018-09-08T08:07:54.157Z,21.50
2018-09-08T08:09:58.183Z,21.80
2018-09-08T08:12:02.022Z,22.00
2018-09-08T08:14:05.931Z,22.50
2018-09-08T08:16:09.715Z,23.30
2018-09-08T08:18:13.564Z,23.10
2018-09-08T08:20:17.314Z,22.70
2018-09-08T08:22:21.195Z,22.90
2018-09-08T08:24:24.976Z,22.30
2018-09-08T08:26:28.743Z,22.50
2018-09-08T08:28:32.550Z,22.30
2018-09-08T08:30:36.594Z,22.30
2018-09-08T08:32:41.188Z,22.40
2018-09-08T08:34:44.917Z,22.10
2018-09-08T08:36:48.717Z,22.10
2018-09-08T08:38:52.528Z,22.10
2018-09-08T08:40:56.294Z,22.60
2018-09-08T08:43:00.132Z,23.00
2018-09-08T08:45:03.942Z,23.00
2018-09-08T08:47:07.726Z,22.70
2018-09-08T08:49:11.494Z,23.20
2018-09-08T08:51:26.374Z,23.40
2018-09-08T08:53:41.416Z,23.40
2018-09-08T08:55:45.237Z,23.20
2018-09-08T08:57:49.052Z,23.10
2018-09-08T08:59:52.853Z,22.90
2018-09-08T09:01:56.608Z,22.50
2018-09-08T09:04:00.730Z,22.10
2018-09-08T09:06:04.815Z,21.60
2018-09-08T09:08:08.554Z,21.60
2018-09-08T09:10:12.384Z,21.50
2018-09-08T09:12:16.122Z,21.70
2018-09-08T09:14:19.968Z,22.20
2018-09-08T09:16:23.783Z,22.20
2018-09-08T09:18:39.417Z,22.00
2018-09-08T09:20:53.967Z,22.20
2018-09-08T09:23:17.112Z,22.00
2018-09-08T09:25:20.610Z,21.70
2018-09-08T09:27:24.821Z,22.60
2018-09-08T09:29:28.659Z,23.10
2018-09-08T09:31:32.439Z,23.50
2018-09-08T09:33:36.244Z,22.60
2018-09-08T09:35:40.069Z,22.50
2018-09-08T09:37:43.826Z,22.00
2018-09-08T09:39:48.087Z,22.00
2018-09-08T09:41:51.894Z,22.60
2018-09-08T09:43:55.706Z,21.70
2018-09-08T09:45:59.532Z,21.30
2018-09-08T09:48:03.469Z,21.70
2018-09-08T09:50:08.846Z,21.90
2018-09-08T09:52:12.601Z,21.30
2018-09-08T09:54:16.424Z,20.90
2018-09-08T09:56:20.162Z,20.60
2018-09-08T09:58:23.947Z,20.80
2018-09-08T10:00:32.924Z,21.30
2018-09-08T10:02:40.795Z,22.10
2018-09-08T10:04:44.759Z,23.00
2018-09-08T10:06:48.569Z,23.20
2018-09-08T10:08:52.328Z,23.40
2018-09-08T10:10:56.199Z,24.50
2018-09-08T10:12:59.973Z,24.70
2018-09-08T10:15:03.817Z,24.00
2018-09-08T10:17:07.635Z,23.60
2018-09-08T10:19:11.497Z,22.30
2018-09-08T10:21:15.369Z,21.80
2018-09-08T10:23:19.253Z,21.60
2018-09-08T10:25:23.119Z,21.60
2018-09-08T10:27:26.908Z,20.60
2018-09-08T10:29:30.767Z,21.20
2018-09-08T10:31:34.530Z,22.20
2018-09-08T10:33:38.307Z,21.90
2018-09-08T10:35:42.105Z,22.20
2018-09-08T10:37:45.884Z,22.50
2018-09-08T10:39:49.633Z,22.70
2018-09-08T10:41:53.481Z,22.20
2018-09-08T10:43:57.275Z,22.30
2018-09-08T10:46:01.049Z,22.30
2018-09-08T10:48:04.840Z,22.90
2018-09-08T10:50:09.551Z,23.60
2018-09-08T10:52:37.475Z,23.50
2018-09-08T10:54:41.209Z,22.50
2018-09-08T10:56:45.069Z,21.60
2018-09-08T10:58:48.876Z,21.30
2018-09-08T11:00:52.647Z,21.40
2018-09-08T11:02:56.445Z,21.90
2018-09-08T11:05:00.718Z,21.90
2018-09-08T11:07:04.477Z,22.20
2018-09-08T11:09:08.212Z,21.70
2018-09-08T11:11:12.047Z,21.40
2018-09-08T11:13:15.849Z,21.20
2018-09-08T11:15:19.681Z,20.90
2018-09-08T11:17:23.597Z,20.50
2018-09-08T11:19:27.446Z,21.30
2018-09-08T11:21:31.245Z,22.90
2018-09-08T11:23:34.981Z,24.70
2018-09-08T11:25:38.730Z,24.80
2018-09-08T11:27:42.552Z,24.60
2018-09-08T11:29:46.350Z,24.30
2018-09-08T11:31:50.100Z,23.50
2018-09-08T11:33:53.979Z,23.00
2018-09-08T11:35:57.785Z,23.10
2018-09-08T11:38:01.739Z,23.80
2018-09-08T11:40:05.779Z,24.20
2018-09-08T11:42:09.520Z,24.10
2018-09-08T11:44:13.252Z,24.10
2018-09-08T11:46:17.057Z,24.00
2018-09-08T11:48:20.880Z,24.10
2018-09-08T11:50:24.699Z,24.20
2018-09-08T11:52:28.473Z,24.30
2018-09-08T11:54:32.195Z,23.10
2018-09-08T11:56:36.056Z,22.80
2018-09-08T11:58:39.846Z,24.00
2018-09-08T12:00:43.610Z,24.70
2018-09-08T12:02:47.404Z,24.30
2018-09-08T12:04:51.186Z,23.40
2018-09-08T12:06:55.027Z,23.40
2018-09-08T12:08:58.775Z,23.80
2018-09-08T12:11:02.489Z,23.80
2018-09-08T12:13:06.310Z,23.30
2018-09-08T12:15:10.206Z,23.60
2018-09-08T12:17:13.942Z,23.70
2018-09-08T12:19:17.695Z,22.40
2018-09-08T12:21:21.565Z,22.00
2018-09-08T12:23:25.333Z,21.90
2018-09-08T12:25:29.120Z,21.80
2018-09-08T12:27:32.879Z,22.20
2018-09-08T12:29:36.636Z,22.30
2018-09-08T12:31:40.411Z,22.00
2018-09-08T12:33:44.149Z,22.20
2018-09-08T12:35:47.885Z,22.90
2018-09-08T12:37:51.800Z,23.50
2018-09-08T12:39:55.629Z,23.90
2018-09-08T12:41:59.399Z,24.10
2018-09-08T12:44:03.133Z,23.90
2018-09-08T12:46:06.990Z,24.10
2018-09-08T12:48:10.867Z,24.70
2018-09-08T12:50:14.656Z,24.60
2018-09-08T12:52:18.413Z,24.60
2018-09-08T12:54:22.195Z,23.80
2018-09-08T12:56:25.988Z,22.90
2018-09-08T12:58:29.794Z,21.80
2018-09-08T13:00:34.388Z,22.00
2018-09-08T13:02:38.151Z,21.90
2018-09-08T13:04:41.886Z,21.80
2018-09-08T13:06:45.692Z,21.90
2018-09-08T13:08:49.600Z,21.90
2018-09-08T13:10:53.383Z,22.30
2018-09-08T13:12:57.111Z,23.00
2018-09-08T13:15:00.877Z,23.30
2018-09-08T13:17:04.632Z,23.20
2018-09-08T13:19:08.421Z,23.60
2018-09-08T13:21:12.207Z,24.30
2018-09-08T13:23:16.068Z,24.50
2018-09-08T13:25:19.968Z,24.10
2018-09-08T13:27:23.716Z,23.40
2018-09-08T13:29:27.544Z,23.00
2018-09-08T13:31:31.295Z,22.90
2018-09-08T13:33:35.015Z,23.20
2018-09-08T13:35:38.850Z,23.00
2018-09-08T13:37:42.574Z,22.20
2018-09-08T13:39:46.487Z,21.80
2018-09-08T13:41:50.203Z,21.60
2018-09-08T13:43:53.963Z,21.10
2018-09-08T13:45:57.736Z,21.00
2018-09-08T13:48:01.548Z,21.30
2018-09-08T13:50:05.411Z,22.10
2018-09-08T13:52:09.294Z,22.60
2018-09-08T13:54:13.170Z,23.10
2018-09-08T13:56:16.943Z,23.60
2018-09-08T13:58:20.772Z,23.50
2018-09-08T14:00:24.676Z,22.90
2018-09-08T14:02:28.907Z,22.60
2018-09-08T14:04:32.658Z,22.50
2018-09-08T14:06:36.688Z,22.20
2018-09-08T14:08:40.563Z,22.00
2018-09-08T14:10:45.419Z,22.00
2018-09-08T14:12:49.165Z,21.90
2018-09-08T14:14:52.915Z,21.70
2018-09-08T14:16:56.659Z,21.80
2018-09-08T14:19:00.414Z,21.60
2018-09-08T14:21:04.256Z,21.50
2018-09-08T14:23:08.019Z,21.40
2018-09-08T14:25:11.729Z,22.30
2018-09-08T14:27:15.658Z,23.00
2018-09-08T14:29:19.403Z,23.30
2018-09-08T14:31:23.191Z,23.40
2018-09-08T14:33:27.260Z,23.60
2018-09-08T14:35:31.323Z,23.80
2018-09-08T14:37:35.241Z,23.40
2018-09-08T14:39:38.993Z,22.90
2018-09-08T14:41:42.812Z,22.40
2018-09-08T14:43:46.585Z,22.00
2018-09-08T14:45:50.822Z,21.80
2018-09-08T14:47:54.891Z,21.50
2018-09-08T14:49:58.638Z,21.50
2018-09-08T14:52:03.761Z,21.60
2018-09-08T14:54:08.400Z,21.40
2018-09-08T14:56:12.467Z,21.20
2018-09-08T14:58:16.267Z,20.80
2018-09-08T15:00:21.269Z,20.70
2018-09-08T15:02:25.066Z,21.30
2018-09-08T15:04:29.065Z,22.00
2018-09-08T15:06:32.993Z,22.50
2018-09-08T15:08:36.785Z,22.70
2018-09-08T15:10:41.028Z,23.00
2018-09-08T15:12:45.740Z,22.90
2018-09-08T15:14:49.520Z,21.90
2018-09-08T15:16:53.254Z,21.50
2018-09-08T15:18:57.080Z,21.30
2018-09-08T15:21:00.829Z,21.10
2018-09-08T15:23:04.761Z,20.70
2018-09-08T15:25:08.580Z,20.50
2018-09-08T15:27:21.645Z,20.20
2018-09-08T15:29:25.504Z,20.20
2018-09-08T15:31:29.326Z,20.20
2018-09-08T15:33:33.249Z,20.30
2018-09-08T15:35:37.028Z,20.30
2018-09-08T15:37:41.242Z,20.40
2018-09-08T15:39:45.002Z,20.70
2018-09-08T15:41:48.748Z,21.40
2018-09-08T15:43:52.813Z,22.00
2018-09-08T15:45:56.660Z,22.30
2018-09-08T15:48:01.243Z,22.70
2018-09-08T15:50:05.134Z,22.60
2018-09-08T15:52:09.880Z,22.10
2018-09-08T15:54:14.008Z,21.70
2018-09-08T15:56:18.810Z,21.40
2018-09-08T15:58:22.708Z,20.90
2018-09-08T16:00:26.514Z,20.50
2018-09-08T16:02:30.883Z,20.40
2018-09-08T16:04:34.841Z,20.20
2018-09-08T16:06:38.771Z,20.00
2018-09-08T16:08:42.589Z,19.80
2018-09-08T16:10:46.444Z,19.70
2018-09-08T16:12:50.210Z,19.60
2018-09-08T16:14:53.945Z,19.50
2018-09-08T16:16:57.789Z,19.70
2018-09-08T16:19:01.887Z,20.30
2018-09-08T16:21:05.786Z,21.20
2018-09-08T16:23:09.582Z,21.60
2018-09-08T16:25:13.352Z,21.90
2018-09-08T16:27:17.283Z,21.90
2018-09-08T16:29:21.331Z,21.60
2018-09-08T16:31:25.137Z,21.20
2018-09-08T16:33:28.945Z,20.80
2018-09-08T16:35:32.713Z,20.50
2018-09-08T16:37:36.556Z,20.30
2018-09-08T16:39:40.576Z,20.00
2018-09-08T16:41:44.337Z,19.80
2018-09-08T16:43:48.412Z,19.60
2018-09-08T16:45:52.348Z,19.50
2018-09-08T16:47:56.114Z,19.30
2018-09-08T16:50:00.072Z,19.20
2018-09-08T16:52:03.887Z,19.10
2018-09-08T16:54:07.693Z,19.00
2018-09-08T16:56:11.431Z,19.50
2018-09-08T16:58:15.517Z,20.30
2018-09-08T17:00:19.688Z,20.90
2018-09-08T17:02:23.504Z,21.30
2018-09-08T17:04:36.602Z,21.60
2018-09-08T17:06:40.843Z,21.40
2018-09-08T17:08:44.628Z,21.00
2018-09-08T17:10:49.659Z,20.60
2018-09-08T17:12:53.394Z,20.20
2018-09-08T17:14:57.257Z,19.80
2018-09-08T17:17:01.206Z,19.50
2018-09-08T17:19:05.154Z,19.20
2018-09-08T17:21:09.119Z,19.00
2018-09-08T17:23:12.957Z,18.80
2018-09-08T17:25:16.755Z,18.60
2018-09-08T17:27:20.522Z,18.50
2018-09-08T17:29:24.315Z,18.40
2018-09-08T17:31:28.138Z,18.20
2018-09-08T17:33:32.338Z,18.20
2018-09-08T17:35:36.126Z,18.90
2018-09-08T17:37:39.913Z,19.70
2018-09-08T17:39:43.688Z,20.30
2018-09-08T17:41:47.763Z,20.60
2018-09-08T17:43:52.431Z,20.80
2018-09-08T17:45:56.211Z,20.50
2018-09-08T17:48:00.916Z,20.00
2018-09-08T17:50:04.974Z,19.60
2018-09-08T17:52:08.867Z,19.20
2018-09-08T17:54:12.715Z,18.90
2018-09-08T17:56:16.471Z,18.60
2018-09-08T17:58:20.286Z,18.30
2018-09-08T18:00:29.639Z,18.20
2018-09-08T18:02:33.573Z,18.00
2018-09-08T18:04:37.903Z,17.80
2018-09-08T18:06:41.836Z,17.70
2018-09-08T18:08:45.605Z,17.60
2018-09-08T18:10:49.397Z,17.50
2018-09-08T18:12:53.338Z,17.50
2018-09-08T18:14:57.166Z,18.20
2018-09-08T18:17:01.038Z,19.00
2018-09-08T18:19:04.958Z,19.60
2018-09-08T18:21:08.854Z,19.90
2018-09-08T18:23:13.980Z,20.10
2018-09-08T18:25:17.816Z,19.80
2018-09-08T18:27:21.661Z,19.30
2018-09-08T18:29:25.523Z,18.90
2018-09-08T18:31:29.344Z,18.50
2018-09-08T18:33:33.169Z,18.20
2018-09-08T18:35:37.069Z,17.90
2018-09-08T18:37:41.131Z,17.70
2018-09-08T18:39:45.138Z,17.50
2018-09-08T18:41:49.092Z,17.40
2018-09-08T18:43:52.960Z,17.20
2018-09-08T18:45:56.795Z,17.10
2018-09-08T18:48:00.672Z,17.00
2018-09-08T18:50:04.862Z,16.90
2018-09-08T18:52:09.478Z,16.80
2018-09-08T18:54:13.343Z,17.40
2018-09-08T18:56:17.745Z,18.30
2018-09-08T18:58:21.540Z,19.00
2018-09-08T19:00:25.566Z,19.40
2018-09-08T19:02:29.512Z,19.70
2018-09-08T19:04:33.400Z,19.50
2018-09-08T19:08:45.326Z,19.00
2018-09-08T19:10:49.733Z,18.20
2018-09-08T19:12:54.076Z,17.80
2018-09-08T19:15:14.857Z,17.60
2018-09-08T19:17:19.035Z,17.40
2018-09-08T19:19:23.657Z,17.20
2018-09-08T19:21:27.984Z,17.00
2018-09-08T19:23:33.762Z,16.90
2018-09-08T19:25:38.382Z,16.80
2018-09-08T19:27:42.657Z,16.70
2018-09-08T19:29:47.864Z,16.60
2018-09-08T19:31:52.378Z,16.50
2018-09-08T19:33:57.527Z,16.70
2018-09-08T19:36:01.880Z,17.50
2018-09-08T19:38:06.498Z,18.20
2018-09-08T19:40:15.793Z,18.60
2018-09-08T19:42:19.715Z,18.80
2018-09-08T19:44:27.319Z,18.80
2018-09-08T19:46:36.563Z,18.50
2018-09-08T19:48:40.752Z,18.10
2018-09-08T19:50:45.315Z,17.70
2018-09-08T19:52:54.837Z,17.40
2018-09-08T19:54:59.613Z,17.20
2018-09-08T19:57:09.297Z,16.90
2018-09-08T19:59:13.379Z,16.70
2018-09-08T20:01:17.359Z,16.50
2018-09-08T20:03:21.655Z,16.30
2018-09-08T20:05:25.969Z,16.10
2018-09-08T20:07:30.067Z,16.00
2018-09-08T20:09:34.238Z,16.00
2018-09-08T20:11:38.119Z,15.80
2018-09-08T20:13:42.774Z,15.70
2018-09-08T20:15:47.226Z,16.30
2018-09-08T20:17:51.435Z,17.20
2018-09-08T20:19:55.565Z,17.60
2018-09-08T20:21:59.879Z,18.10
2018-09-08T20:24:04.387Z,18.20
2018-09-08T20:26:10.693Z,18.00
2018-09-08T20:28:15.154Z,17.50
2018-09-08T20:30:19.135Z,17.10
2018-09-08T20:32:23.505Z,16.70
2018-09-08T20:34:27.885Z,16.40
2018-09-08T20:36:31.830Z,16.20
2018-09-08T20:38:35.988Z,16.00
2018-09-08T20:40:40.442Z,15.90
2018-09-08T20:42:44.602Z,15.80
2018-09-08T20:44:48.843Z,15.70
2018-09-08T20:46:53.453Z,15.50
2018-09-08T20:48:57.935Z,15.40
2018-09-08T20:51:02.409Z,15.40
2018-09-08T20:53:06.833Z,15.30
2018-09-08T20:56:14.200Z,15.30
2018-09-08T20:58:18.237Z,15.80
2018-09-08T21:00:23.143Z,16.90
2018-09-08T21:02:27.250Z,17.40
2018-09-08T21:04:31.462Z,17.80
2018-09-08T21:06:35.968Z,17.70
2018-09-08T21:08:40.075Z,17.30
2018-09-08T21:10:44.225Z,16.90
2018-09-08T21:12:48.313Z,16.50
2018-09-08T21:14:52.726Z,16.30
2018-09-08T21:16:58.550Z,16.10
2018-09-08T21:19:02.497Z,15.90
2018-09-08T21:21:06.683Z,15.80
2018-09-08T21:23:11.385Z,15.60
2018-09-08T21:25:15.201Z,15.60
2018-09-08T21:27:18.999Z,15.40
2018-09-08T21:29:23.165Z,15.30
2018-09-08T21:31:27.369Z,15.20
2018-09-08T21:33:31.271Z,15.20
2018-09-08T21:35:35.267Z,15.10
2018-09-08T21:37:40.385Z,15.00
2018-09-08T21:39:44.452Z,15.70
2018-09-08T21:41:48.807Z,16.50
2018-09-08T21:43:52.772Z,17.10
2018-09-08T21:45:56.995Z,17.40
2018-09-08T21:48:01.466Z,17.60
2018-09-08T21:50:05.448Z,17.30
2018-09-08T21:52:09.256Z,17.00
2018-09-08T21:54:13.188Z,16.60
2018-09-08T21:56:17.007Z,16.20
2018-09-08T21:58:21.136Z,15.90
2018-09-08T22:00:24.966Z,15.70
2018-09-08T22:02:28.970Z,15.50
2018-09-08T22:04:33.194Z,15.40
2018-09-08T22:06:37.065Z,15.30
2018-09-08T22:08:41.386Z,15.20
2018-09-08T22:10:45.358Z,15.10
2018-09-08T22:12:49.157Z,15.00
2018-09-08T22:14:53.096Z,14.90
2018-09-08T22:16:57.021Z,14.80
2018-09-08T22:19:01.556Z,14.80
2018-09-08T22:21:05.744Z,14.90
2018-09-08T22:23:09.492Z,15.60
2018-09-08T22:25:13.351Z,16.40
2018-09-08T22:27:17.105Z,16.90
2018-09-08T22:29:20.983Z,17.40
2018-09-08T22:31:24.866Z,17.30
2018-09-08T22:33:28.862Z,17.00
2018-09-08T22:35:32.910Z,16.60
2018-09-08T22:37:36.759Z,16.10
2018-09-08T22:39:40.741Z,15.80
2018-09-08T22:41:44.682Z,15.50
2018-09-08T22:43:48.452Z,15.30
2018-09-08T22:45:52.262Z,15.10
2018-09-08T22:47:56.329Z,14.90
2018-09-08T22:50:00.244Z,14.70
2018-09-08T22:52:04.056Z,14.60
2018-09-08T22:54:07.974Z,14.50
2018-09-08T22:56:11.806Z,14.50
2018-09-08T22:58:15.632Z,14.40
2018-09-08T23:00:19.461Z,14.30
2018-09-08T23:02:23.253Z,14.40
2018-09-08T23:04:27.222Z,14.50
2018-09-08T23:06:31.085Z,15.20
2018-09-08T23:08:35.005Z,16.00
2018-09-08T23:10:38.795Z,16.60
2018-09-08T23:12:42.694Z,17.00
2018-09-08T23:14:46.539Z,17.10
2018-09-08T23:16:50.328Z,16.70
2018-09-08T23:18:54.168Z,16.30
2018-09-08T23:20:59.381Z,16.00
2018-09-08T23:23:03.250Z,15.60
2018-09-08T23:25:07.159Z,15.30
2018-09-08T23:27:11.163Z,15.20
2018-09-08T23:29:14.904Z,14.90
2018-09-08T23:31:18.845Z,14.90
2018-09-08T23:33:22.618Z,14.70
2018-09-08T23:35:26.423Z,14.70
2018-09-08T23:37:30.214Z,14.60
2018-09-08T23:39:34.000Z,14.50
2018-09-08T23:41:37.803Z,14.50
2018-09-08T23:43:41.589Z,14.50
2018-09-08T23:45:45.377Z,14.50
2018-09-08T23:47:49.142Z,14.50
2018-09-08T23:49:52.969Z,15.10
2018-09-08T23:51:56.760Z,16.00
2018-09-08T23:54:00.527Z,16.60
2018-09-08T23:56:04.383Z,17.10
2018-09-08T23:58:08.228Z,17.30
